createdAt,value
2023-03-08T00:00:42.757Z,88.38
2023-03-08T00:03:16.201Z,88.04
2023-03-08T00:05:45.629Z,85.98
2023-03-08T00:08:17.474Z,86.33
2023-03-08T00:10:47.078Z,92.27
2023-03-08T00:13:17.147Z,91.03
2023-03-08T00:15:47.974Z,89.24
2023-03-08T00:18:18.227Z,86.89
2023-03-08T00:20:47.547Z,85.90
2023-03-08T00:23:16.833Z,84.86
2023-03-08T00:25:46.882Z,83.03
2023-03-08T00:28:16.550Z,81.89
2023-03-08T00:30:45.870Z,81.33
2023-03-08T00:33:16.166Z,80.94
2023-03-08T00:35:55.136Z,80.89
2023-03-08T00:38:26.248Z,80.65
2023-03-08T00:40:55.915Z,80.65
2023-03-08T00:43:27.026Z,80.78
2023-03-08T00:45:56.853Z,80.59
2023-03-08T00:48:29.850Z,80.35
2023-03-08T00:51:02.280Z,80.39
2023-03-08T00:53:32.594Z,80.37
2023-03-08T00:56:01.936Z,80.31
2023-03-08T00:58:32.600Z,80.04
2023-03-08T01:01:09.755Z,79.97
2023-03-08T01:03:39.871Z,80.06
2023-03-08T01:06:11.142Z,79.88
2023-03-08T01:08:43.570Z,79.81
2023-03-08T01:11:28.990Z,79.77
2023-03-08T01:13:58.715Z,79.99
2023-03-08T01:16:31.455Z,80.71
2023-03-08T01:19:02.746Z,80.77
2023-03-08T01:21:32.858Z,80.76
2023-03-08T01:24:02.559Z,81.10
2023-03-08T01:26:31.852Z,80.89
2023-03-08T01:29:01.976Z,80.89
2023-03-08T01:31:32.251Z,82.20
2023-03-08T01:34:01.688Z,81.69
2023-03-08T01:36:31.696Z,81.50
2023-03-08T01:39:02.804Z,81.50
2023-03-08T01:41:35.438Z,81.69
2023-03-08T01:44:04.826Z,81.19
2023-03-08T01:46:37.075Z,81.54
2023-03-08T01:49:12.519Z,83.36
2023-03-08T01:52:04.036Z,82.21
2023-03-08T01:54:43.262Z,82.27
2023-03-08T01:57:21.787Z,83.70
2023-03-08T01:59:54.269Z,75.15
2023-03-08T02:02:29.948Z,81.38
2023-03-08T02:05:00.154Z,86.82
2023-03-08T02:07:32.499Z,80.38
2023-03-08T02:10:02.833Z,79.79
2023-03-08T02:12:33.550Z,84.54
2023-03-08T02:15:06.150Z,83.09
2023-03-08T02:17:40.011Z,86.97
2023-03-08T02:20:34.798Z,84.82
2023-03-08T02:23:26.408Z,87.68
2023-03-08T02:26:03.865Z,79.10
2023-03-08T02:28:34.613Z,87.46
2023-03-08T02:31:04.124Z,82.02
2023-03-08T02:33:35.772Z,83.12
2023-03-08T02:36:07.008Z,83.88
2023-03-08T02:38:38.926Z,85.29
2023-03-08T02:41:08.048Z,85.68
2023-03-08T02:43:38.432Z,86.21
2023-03-08T02:46:18.235Z,87.67
2023-03-08T02:48:50.571Z,85.70
2023-03-08T02:51:21.366Z,86.81
2023-03-08T02:53:52.162Z,89.94
2023-03-08T02:56:24.105Z,86.10
2023-03-08T02:58:53.833Z,86.76
2023-03-08T03:01:24.271Z,88.92
2023-03-08T03:03:56.221Z,87.92
2023-03-08T03:06:25.787Z,87.76
2023-03-08T03:08:56.980Z,88.21
2023-03-08T03:11:26.789Z,88.51
2023-03-08T03:14:00.622Z,89.07
2023-03-08T03:16:32.609Z,88.74
2023-03-08T03:19:02.466Z,89.09
2023-03-08T03:21:31.969Z,89.15
2023-03-08T03:24:02.305Z,88.99
2023-03-08T03:26:32.442Z,89.66
2023-03-08T03:29:02.591Z,89.83
2023-03-08T03:31:33.495Z,89.70
2023-03-08T03:34:03.560Z,89.67
2023-03-08T03:36:35.220Z,89.67
2023-03-08T03:39:05.463Z,89.18
2023-03-08T03:41:36.581Z,89.57
2023-03-08T03:44:06.610Z,89.60
2023-03-08T03:46:36.908Z,89.79
2023-03-08T03:49:07.658Z,90.19
2023-03-08T03:51:37.454Z,89.46
2023-03-08T03:54:09.244Z,89.71
2023-03-08T03:56:43.065Z,88.79
2023-03-08T03:59:12.776Z,88.56
2023-03-08T04:01:43.711Z,92.78
2023-03-08T04:04:13.917Z,90.45
2023-03-08T04:06:43.991Z,90.43
2023-03-08T04:09:18.141Z,84.57
2023-03-08T04:11:48.135Z,86.57
2023-03-08T04:14:18.801Z,88.54
2023-03-08T04:16:48.261Z,89.24
2023-03-08T04:19:19.169Z,89.98
2023-03-08T04:21:50.007Z,90.30
2023-03-08T04:24:21.291Z,87.45
2023-03-08T04:26:51.257Z,87.71
2023-03-08T04:29:21.758Z,89.02
2023-03-08T04:31:52.195Z,89.60
2023-03-08T04:34:22.468Z,89.93
2023-03-08T04:36:52.335Z,88.53
2023-03-08T04:39:23.515Z,91.15
2023-03-08T04:41:53.203Z,89.23
2023-03-08T04:44:26.532Z,90.29
2023-03-08T04:46:56.765Z,89.55
2023-03-08T04:49:27.593Z,88.44
2023-03-08T04:51:57.698Z,89.97
2023-03-08T04:54:28.211Z,90.98
2023-03-08T04:56:59.824Z,92.00
2023-03-08T04:59:29.905Z,85.73
2023-03-08T05:02:00.242Z,88.42
2023-03-08T05:04:31.134Z,89.89
2023-03-08T05:07:01.085Z,90.46
2023-03-08T05:09:31.930Z,91.11
2023-03-08T05:12:01.247Z,91.10
2023-03-08T05:14:33.487Z,90.96
2023-03-08T05:17:07.055Z,91.98
2023-03-08T05:19:44.962Z,90.04
2023-03-08T05:22:18.554Z,91.36
2023-03-08T05:24:51.856Z,89.92
2023-03-08T05:30:13.669Z,91.62
2023-03-08T05:32:43.776Z,91.49
2023-03-08T05:35:13.903Z,90.50
2023-03-08T05:37:43.476Z,91.06
2023-03-08T05:40:14.120Z,91.20
2023-03-08T05:42:45.170Z,90.43
2023-03-08T05:45:16.498Z,87.95
2023-03-08T05:47:50.135Z,86.79
2023-03-08T05:50:20.135Z,89.17
2023-03-08T05:52:52.294Z,88.41
2023-03-08T05:55:24.939Z,87.26
2023-03-08T05:57:55.833Z,86.48
2023-03-08T06:00:45.208Z,84.19
2023-03-08T06:03:16.527Z,85.80
2023-03-08T06:05:46.337Z,84.84
2023-03-08T06:08:16.238Z,84.44
2023-03-08T06:10:45.693Z,85.43
2023-03-08T06:13:17.310Z,85.46
2023-03-08T06:15:46.851Z,84.17
2023-03-08T06:18:17.259Z,84.61
2023-03-08T06:20:55.864Z,83.28
2023-03-08T06:23:25.645Z,84.44
2023-03-08T06:25:55.669Z,82.46
2023-03-08T06:28:26.851Z,80.70
2023-03-08T06:30:56.688Z,82.55
2023-03-08T06:33:29.299Z,82.14
2023-03-08T06:36:01.174Z,81.72
2023-03-08T06:38:33.539Z,81.66
2023-03-08T06:41:04.227Z,82.60
2023-03-08T06:43:34.946Z,79.59
2023-03-08T06:46:07.298Z,80.71
2023-03-08T06:48:37.852Z,81.84
2023-03-08T06:51:10.113Z,84.42
2023-03-08T06:53:41.114Z,81.75
2023-03-08T06:56:14.835Z,81.19
2023-03-08T06:58:45.377Z,79.11
2023-03-08T07:01:25.644Z,78.68
2023-03-08T07:03:56.200Z,78.93
2023-03-08T07:06:25.570Z,79.44
2023-03-08T07:08:55.012Z,78.30
2023-03-08T07:11:32.243Z,76.95
2023-03-08T07:14:01.773Z,77.68
2023-03-08T07:16:31.760Z,75.22
2023-03-08T07:19:03.747Z,75.44
2023-03-08T07:21:34.138Z,75.87
2023-03-08T07:24:03.291Z,75.55
2023-03-08T07:26:33.526Z,74.77
2023-03-08T07:29:05.001Z,75.00
2023-03-08T07:31:36.955Z,76.28
2023-03-08T07:34:06.969Z,74.88
2023-03-08T07:36:36.430Z,76.28
2023-03-08T07:39:06.221Z,73.28
2023-03-08T07:41:37.085Z,71.70
2023-03-08T07:44:07.335Z,71.65
2023-03-08T07:46:37.348Z,73.18
2023-03-08T07:49:11.236Z,72.48
2023-03-08T07:51:42.418Z,71.53
2023-03-08T07:54:16.229Z,70.34
2023-03-08T07:56:46.234Z,72.36
2023-03-08T07:59:16.075Z,71.40
2023-03-08T08:01:45.866Z,71.26
2023-03-08T08:04:16.297Z,71.66
2023-03-08T08:06:45.865Z,68.23
2023-03-08T08:09:15.614Z,69.58
2023-03-08T08:11:45.677Z,71.95
2023-03-08T08:14:15.637Z,68.95
2023-03-08T08:16:46.866Z,68.98
2023-03-08T08:19:18.161Z,69.08
2023-03-08T08:21:48.634Z,67.89
2023-03-08T08:24:18.770Z,67.81
2023-03-08T08:26:47.980Z,68.33
2023-03-08T08:29:17.242Z,68.86
2023-03-08T08:31:47.312Z,67.15
2023-03-08T08:34:17.345Z,66.09
2023-03-08T08:36:47.547Z,66.47
2023-03-08T08:39:17.295Z,65.97
2023-03-08T08:41:49.778Z,65.87
2023-03-08T08:44:19.561Z,63.69
2023-03-08T08:46:49.651Z,64.74
2023-03-08T08:49:22.359Z,63.37
2023-03-08T08:51:54.657Z,65.08
2023-03-08T08:54:23.847Z,67.49
2023-03-08T08:56:53.560Z,66.78
2023-03-08T08:59:23.492Z,65.54
2023-03-08T09:01:52.970Z,66.28
2023-03-08T09:04:24.788Z,63.78
2023-03-08T09:06:54.850Z,64.20
2023-03-08T09:09:29.817Z,64.78
2023-03-08T09:11:59.157Z,64.63
2023-03-08T09:14:29.037Z,66.28
2023-03-08T09:16:58.625Z,66.30
2023-03-08T09:19:29.469Z,66.28
2023-03-08T09:21:59.146Z,66.54
2023-03-08T09:24:30.118Z,61.53
2023-03-08T09:27:00.032Z,63.74
2023-03-08T09:29:29.890Z,62.71
2023-03-08T09:32:01.643Z,61.69
2023-03-08T09:34:34.048Z,64.58
2023-03-08T09:37:03.819Z,63.12
2023-03-08T09:39:34.638Z,62.28
2023-03-08T09:42:28.157Z,63.69
2023-03-08T09:45:08.052Z,63.83
2023-03-08T09:47:47.210Z,61.66
2023-03-08T09:50:22.502Z,59.53
2023-03-08T09:53:02.833Z,59.49
2023-03-08T09:55:39.739Z,57.33
2023-03-08T09:58:19.535Z,59.18
2023-03-08T10:00:49.892Z,61.92
2023-03-08T10:03:32.043Z,59.79
2023-03-08T10:06:09.287Z,60.08
2023-03-08T10:09:05.876Z,58.37
2023-03-08T10:11:46.130Z,61.63
2023-03-08T10:14:24.750Z,62.48
2023-03-08T10:17:01.777Z,60.54
2023-03-08T10:19:43.757Z,63.75
2023-03-08T10:22:27.329Z,63.82
2023-03-08T10:24:57.889Z,60.61
2023-03-08T10:27:32.890Z,61.41
2023-03-08T10:31:07.204Z,60.13
2023-03-08T10:33:16.293Z,59.24
2023-03-08T10:36:13.215Z,59.01
2023-03-08T10:38:43.223Z,61.40
2023-03-08T10:41:18.511Z,61.67
2023-03-08T10:43:51.740Z,61.05
2023-03-08T10:46:23.645Z,62.27
2023-03-08T10:48:53.291Z,60.20
2023-03-08T10:51:31.200Z,59.82
2023-03-08T10:54:03.786Z,62.54
2023-03-08T10:56:53.696Z,61.08
2023-03-08T10:59:32.884Z,62.95
2023-03-08T11:02:24.575Z,61.79
2023-03-08T11:05:00.129Z,62.28
2023-03-08T11:07:33.589Z,63.42
2023-03-08T11:10:19.386Z,62.68
2023-03-08T11:12:49.160Z,63.40
2023-03-08T11:15:23.650Z,64.71
2023-03-08T11:18:08.029Z,62.31
2023-03-08T11:20:46.248Z,64.04
2023-03-08T11:23:22.824Z,64.15
2023-03-08T11:25:56.807Z,63.13
2023-03-08T11:28:35.364Z,63.47
2023-03-08T11:31:15.958Z,63.95
2023-03-08T11:34:08.689Z,65.08
2023-03-08T11:36:45.389Z,65.00
2023-03-08T11:39:29.653Z,64.57
2023-03-08T11:42:16.525Z,64.17
2023-03-08T11:45:07.289Z,65.93
2023-03-08T11:48:01.372Z,65.45
2023-03-08T11:50:43.127Z,64.32
2023-03-08T11:53:33.639Z,65.86
2023-03-08T11:56:13.648Z,65.45
2023-03-08T11:58:55.844Z,67.01
2023-03-08T12:01:35.874Z,67.40
2023-03-08T12:04:13.913Z,67.29
2023-03-08T12:06:45.705Z,66.93
2023-03-08T12:09:39.748Z,67.06
2023-03-08T12:12:22.668Z,67.27
2023-03-08T12:15:02.753Z,67.07
2023-03-08T12:17:39.993Z,65.87
2023-03-08T12:20:23.277Z,67.01
2023-03-08T12:23:09.711Z,66.56
2023-03-08T12:25:42.897Z,67.16
2023-03-08T12:28:26.247Z,67.13
2023-03-08T12:31:29.057Z,66.73
2023-03-08T12:34:00.671Z,67.22
2023-03-08T12:36:40.623Z,66.97
2023-03-08T12:39:41.570Z,67.37
2023-03-08T12:42:12.583Z,67.26
2023-03-08T12:44:42.260Z,67.59
2023-03-08T12:47:23.305Z,67.48
2023-03-08T12:49:59.825Z,67.63
2023-03-08T12:52:36.114Z,67.64
2023-03-08T12:55:18.032Z,67.25
2023-03-08T12:57:52.770Z,67.68
2023-03-08T13:00:26.144Z,67.81
2023-03-08T13:03:07.187Z,68.12
2023-03-08T13:05:39.770Z,68.26
2023-03-08T13:08:18.344Z,68.43
2023-03-08T13:10:51.253Z,68.21
2023-03-08T13:13:41.480Z,68.48
2023-03-08T13:16:31.900Z,68.72
2023-03-08T13:19:24.239Z,68.94
2023-03-08T13:22:13.609Z,69.17
2023-03-08T13:24:55.342Z,69.18
2023-03-08T13:27:59.382Z,69.11
2023-03-08T13:30:52.863Z,69.39
2023-03-08T13:33:27.990Z,69.65
2023-03-08T13:36:05.537Z,69.38
2023-03-08T13:38:37.488Z,69.69
2023-03-08T13:41:07.622Z,69.85
2023-03-08T13:43:37.567Z,69.86
2023-03-08T13:46:21.269Z,69.80
2023-03-08T13:48:50.784Z,69.96
2023-03-08T13:51:21.136Z,70.10
2023-03-08T13:53:50.806Z,70.39
2023-03-08T13:56:26.695Z,69.96
2023-03-08T13:59:00.550Z,70.25
2023-03-08T14:01:31.733Z,70.21
2023-03-08T14:04:12.937Z,70.72
2023-03-08T14:06:51.080Z,70.72
2023-03-08T14:09:21.406Z,70.38
2023-03-08T14:12:09.578Z,70.55
2023-03-08T14:14:44.694Z,70.55
2023-03-08T14:17:25.118Z,71.17
2023-03-08T14:19:59.711Z,70.83
2023-03-08T14:22:39.791Z,70.63
2023-03-08T14:25:24.241Z,70.94
2023-03-08T14:27:55.044Z,71.43
2023-03-08T14:30:27.373Z,70.82
2023-03-08T14:33:30.632Z,71.34
2023-03-08T14:36:06.987Z,71.15
2023-03-08T14:38:37.884Z,71.12
2023-03-08T14:41:08.112Z,71.26
2023-03-08T14:43:38.319Z,71.91
2023-03-08T14:46:12.102Z,71.65
2023-03-08T14:48:44.255Z,71.37
2023-03-08T14:51:22.121Z,71.38
2023-03-08T14:54:03.960Z,71.40
2023-03-08T14:56:35.526Z,71.46
2023-03-08T14:59:08.056Z,71.59
2023-03-08T15:01:41.218Z,71.83
2023-03-08T15:04:21.584Z,71.83
2023-03-08T15:06:54.538Z,72.11
2023-03-08T15:09:24.159Z,72.42
2023-03-08T15:11:54.703Z,72.08
2023-03-08T15:14:24.213Z,72.14
2023-03-08T15:16:56.050Z,72.25
2023-03-08T15:19:26.028Z,72.92
2023-03-08T15:21:55.969Z,73.16
2023-03-08T15:24:25.192Z,72.62
2023-03-08T15:26:56.681Z,72.64
2023-03-08T15:29:30.495Z,73.03
2023-03-08T15:32:01.039Z,72.18
2023-03-08T15:34:30.783Z,72.33
2023-03-08T15:37:00.134Z,72.53
2023-03-08T15:39:30.313Z,72.47
2023-03-08T15:42:01.231Z,72.22
2023-03-08T15:44:30.607Z,72.69
2023-03-08T15:47:02.362Z,73.28
2023-03-08T15:49:31.443Z,73.24
2023-03-08T15:52:01.272Z,72.70
2023-03-08T15:54:32.792Z,72.65
2023-03-08T15:57:03.190Z,72.76
2023-03-08T15:59:32.480Z,72.83
2023-03-08T16:02:03.473Z,73.06
2023-03-08T16:04:35.373Z,73.07
2023-03-08T16:07:05.113Z,72.94
2023-03-08T16:09:35.106Z,73.01
2023-03-08T16:12:04.355Z,73.33
2023-03-08T16:14:33.689Z,73.15
2023-03-08T16:17:08.951Z,73.87
2023-03-08T16:19:38.379Z,73.45
2023-03-08T16:22:09.197Z,73.90
2023-03-08T16:24:38.596Z,74.09
2023-03-08T16:27:08.628Z,73.75
2023-03-08T16:29:38.697Z,74.07
2023-03-08T16:32:08.697Z,74.89
2023-03-08T16:34:40.792Z,73.96
2023-03-08T16:37:10.545Z,74.53
2023-03-08T16:39:40.661Z,75.01
2023-03-08T16:42:14.375Z,74.65
2023-03-08T16:44:49.191Z,75.14
2023-03-08T16:47:19.787Z,74.78
2023-03-08T16:52:32.442Z,75.27
2023-03-08T16:55:02.058Z,75.38
2023-03-08T16:57:31.550Z,75.64
2023-03-08T17:00:03.443Z,75.75
2023-03-08T17:02:32.540Z,75.88
2023-03-08T17:05:03.781Z,75.56
2023-03-08T17:07:33.523Z,75.67
2023-03-08T17:10:03.142Z,75.80
2023-03-08T17:12:33.028Z,75.63
2023-03-08T17:15:05.265Z,75.60
2023-03-08T17:17:35.452Z,75.84
2023-03-08T17:20:06.286Z,75.93
2023-03-08T17:22:36.935Z,75.83
2023-03-08T17:25:07.409Z,76.05
2023-03-08T17:27:47.331Z,75.84
2023-03-08T17:30:17.147Z,76.47
2023-03-08T17:32:46.430Z,77.02
2023-03-08T17:35:16.045Z,76.28
2023-03-08T17:37:45.947Z,76.88
2023-03-08T17:40:15.296Z,77.06
2023-03-08T17:42:48.440Z,77.39
2023-03-08T17:45:19.405Z,77.87
2023-03-08T17:47:49.418Z,79.87
2023-03-08T17:50:20.016Z,78.35
2023-03-08T17:52:49.321Z,78.88
2023-03-08T17:55:19.128Z,80.22
2023-03-08T17:57:48.543Z,79.57
2023-03-08T18:00:20.349Z,80.36
2023-03-08T18:02:50.232Z,78.01
2023-03-08T18:05:19.860Z,78.36
2023-03-08T18:07:50.065Z,78.88
2023-03-08T18:10:19.567Z,81.29
2023-03-08T18:12:50.289Z,80.95
2023-03-08T18:15:20.449Z,82.03
2023-03-08T18:17:52.231Z,81.69
2023-03-08T18:20:24.158Z,78.86
2023-03-08T18:22:54.320Z,80.66
2023-03-08T18:25:24.455Z,79.50
2023-03-08T18:27:53.890Z,79.22
2023-03-08T18:30:24.781Z,80.46
2023-03-08T18:32:54.320Z,79.99
2023-03-08T18:35:24.477Z,80.37
2023-03-08T18:37:53.764Z,82.42
2023-03-08T18:40:24.219Z,80.66
2023-03-08T18:42:54.386Z,82.25
2023-03-08T18:45:24.481Z,81.94
2023-03-08T18:47:54.297Z,79.87
2023-03-08T18:50:25.853Z,80.14
2023-03-08T18:52:56.384Z,81.43
2023-03-08T18:55:28.545Z,81.97
2023-03-08T18:57:58.663Z,81.92
2023-03-08T19:00:28.605Z,83.41
2023-03-08T19:02:58.314Z,86.57
2023-03-08T19:05:27.612Z,84.72
2023-03-08T19:07:58.799Z,83.88
2023-03-08T19:10:30.150Z,86.49
2023-03-08T19:13:06.962Z,85.18
2023-03-08T19:15:39.087Z,85.63
2023-03-08T19:18:10.912Z,87.47
2023-03-08T19:20:42.761Z,84.73
2023-03-08T19:23:20.525Z,87.46
2023-03-08T19:26:09.451Z,86.70
2023-03-08T19:28:41.832Z,85.45
2023-03-08T19:31:18.046Z,89.23
2023-03-08T19:33:50.684Z,86.35
2023-03-08T19:36:22.539Z,88.54
2023-03-08T19:38:53.002Z,87.27
2023-03-08T19:41:22.057Z,89.58
2023-03-08T19:43:52.032Z,91.31
2023-03-08T19:46:22.455Z,89.42
2023-03-08T19:48:52.687Z,90.79
2023-03-08T19:51:21.999Z,90.79
2023-03-08T19:53:51.316Z,91.09
2023-03-08T19:56:21.902Z,90.32
2023-03-08T19:58:52.099Z,92.95
2023-03-08T20:01:22.094Z,92.46
2023-03-08T20:03:52.225Z,91.85
2023-03-08T20:06:24.936Z,89.72
2023-03-08T20:08:56.163Z,92.04
2023-03-08T20:11:25.855Z,89.56
2023-03-08T20:13:55.404Z,93.30
2023-03-08T20:16:25.925Z,92.02
2023-03-08T20:18:58.129Z,93.86
2023-03-08T20:21:32.087Z,93.74
2023-03-08T20:24:01.621Z,91.96
2023-03-08T20:26:33.716Z,89.74
2023-03-08T20:29:04.437Z,89.17
2023-03-08T20:31:34.230Z,86.40
2023-03-08T20:34:04.573Z,84.92
2023-03-08T20:36:33.772Z,84.27
2023-03-08T20:39:04.088Z,84.02
2023-03-08T20:41:33.308Z,83.78
2023-03-08T20:44:04.179Z,83.55
2023-03-08T20:46:34.092Z,83.13
2023-03-08T20:49:04.430Z,83.18
2023-03-08T20:51:33.619Z,82.91
2023-03-08T20:54:03.391Z,82.61
2023-03-08T20:56:32.884Z,81.73
2023-03-08T20:59:03.057Z,80.66
2023-03-08T21:01:34.519Z,80.14
2023-03-08T21:04:05.627Z,79.63
2023-03-08T21:06:35.855Z,79.93
2023-03-08T21:09:05.642Z,80.52
2023-03-08T21:11:35.413Z,80.97
2023-03-08T21:14:05.591Z,81.58
2023-03-08T21:16:37.107Z,82.35
2023-03-08T21:19:08.205Z,83.12
2023-03-08T21:21:39.891Z,83.55
2023-03-08T21:24:15.516Z,84.55
2023-03-08T21:26:45.610Z,85.47
2023-03-08T21:29:18.452Z,86.33
2023-03-08T21:31:50.226Z,87.18
2023-03-08T21:34:21.253Z,87.49
2023-03-08T21:36:50.423Z,87.82
2023-03-08T21:39:20.794Z,88.60
2023-03-08T21:41:55.378Z,89.34
2023-03-08T21:44:26.352Z,89.60
2023-03-08T21:46:56.590Z,90.04
2023-03-08T21:49:29.658Z,90.08
2023-03-08T21:52:00.845Z,89.12
2023-03-08T21:54:32.105Z,89.53
2023-03-08T21:57:01.877Z,89.34
2023-03-08T21:59:32.768Z,89.53
2023-03-08T22:02:02.329Z,89.37
2023-03-08T22:04:32.446Z,89.29
2023-03-08T22:07:01.984Z,88.92
2023-03-08T22:09:32.242Z,88.53
2023-03-08T22:12:04.319Z,87.78
2023-03-08T22:14:35.042Z,87.44
2023-03-08T22:17:04.280Z,87.16
2023-03-08T22:19:35.808Z,87.17
2023-03-08T22:22:06.466Z,87.68
2023-03-08T22:24:36.698Z,87.96
2023-03-08T22:27:06.648Z,86.51
2023-03-08T22:29:36.398Z,86.44
2023-03-08T22:32:07.097Z,84.67
2023-03-08T22:34:36.756Z,84.32
2023-03-08T22:37:06.897Z,83.78
2023-03-08T22:39:39.264Z,84.00
2023-03-08T22:42:08.576Z,84.71
2023-03-08T22:44:38.439Z,84.36
2023-03-08T22:47:08.044Z,83.95
2023-03-08T22:49:38.957Z,84.78
2023-03-08T22:52:10.244Z,84.39
2023-03-08T22:54:41.249Z,85.47
2023-03-08T22:57:10.741Z,86.10
2023-03-08T22:59:41.219Z,87.11
2023-03-08T23:02:10.433Z,86.09
2023-03-08T23:04:40.418Z,86.82
2023-03-08T23:07:10.510Z,86.86
2023-03-08T23:09:40.307Z,87.62
2023-03-08T23:12:10.646Z,88.79
2023-03-08T23:14:39.979Z,87.64
2023-03-08T23:17:09.912Z,88.44
2023-03-08T23:19:39.983Z,87.37
2023-03-08T23:22:09.873Z,89.55
2023-03-08T23:24:39.309Z,86.92
2023-03-08T23:27:10.857Z,87.18
2023-03-08T23:29:40.658Z,88.20
2023-03-08T23:32:17.403Z,88.48
2023-03-08T23:34:48.165Z,90.19
2023-03-08T23:37:17.972Z,88.51
2023-03-08T23:39:47.802Z,89.83
2023-03-08T23:42:17.655Z,88.42
2023-03-08T23:44:48.697Z,89.06
2023-03-08T23:47:17.901Z,89.09
2023-03-08T23:49:50.564Z,89.15
2023-03-08T23:52:21.920Z,88.94
2023-03-08T23:54:53.630Z,88.75
2023-03-08T23:57:23.311Z,89.21
2023-03-08T23:59:52.959Z,88.57
